createdAt,value
2022-10-05T00:02:40.226Z,11.80
2022-10-05T00:05:45.192Z,11.80
2022-10-05T00:08:46.888Z,11.80
2022-10-05T00:11:49.453Z,11.80
2022-10-05T00:14:56.675Z,11.70
2022-10-05T00:17:58.681Z,11.70
2022-10-05T00:21:00.366Z,11.70
2022-10-05T00:24:01.989Z,11.60
2022-10-05T00:27:15.918Z,11.60
2022-10-05T00:30:22.380Z,11.60
2022-10-05T00:33:24.027Z,11.60
2022-10-05T00:36:26.216Z,11.60
2022-10-05T00:39:29.867Z,11.60
2022-10-05T00:43:03.737Z,11.60
2022-10-05T00:46:17.835Z,11.60
2022-10-05T00:49:29.478Z,11.50
2022-10-05T00:53:01.673Z,11.50
2022-10-05T00:56:13.572Z,11.50
2022-10-05T00:59:46.431Z,11.50
2022-10-05T01:02:53.911Z,11.40
2022-10-05T01:06:12.640Z,11.40
2022-10-05T01:09:37.721Z,11.40
2022-10-05T01:13:00.633Z,11.50
2022-10-05T01:16:27.400Z,11.40
2022-10-05T01:19:56.676Z,11.50
2022-10-05T01:23:19.967Z,11.40
2022-10-05T01:26:50.998Z,11.40
2022-10-05T01:30:15.247Z,11.40
2022-10-05T01:34:20.197Z,11.40
2022-10-05T01:37:24.983Z,11.40
2022-10-05T01:40:33.981Z,11.30
2022-10-05T01:44:16.424Z,11.30
2022-10-05T01:47:30.464Z,11.20
2022-10-05T01:50:40.662Z,11.20
2022-10-05T01:54:03.283Z,11.20
2022-10-05T01:57:32.679Z,11.20
2022-10-05T02:00:49.137Z,11.20
2022-10-05T02:04:02.741Z,11.20
2022-10-05T02:07:19.675Z,11.20
2022-10-05T02:10:36.754Z,11.20
2022-10-05T02:13:48.846Z,11.20
2022-10-05T02:16:53.085Z,11.20
2022-10-05T02:20:01.452Z,11.30
2022-10-05T02:23:09.284Z,11.30
2022-10-05T02:26:13.236Z,11.20
2022-10-05T02:29:18.067Z,11.20
2022-10-05T02:32:27.102Z,11.20
2022-10-05T02:35:28.800Z,11.20
2022-10-05T02:38:44.001Z,11.10
2022-10-05T02:41:57.497Z,11.10
2022-10-05T02:45:12.384Z,11.10
2022-10-05T02:48:51.400Z,11.10
2022-10-05T02:52:18.548Z,11.00
2022-10-05T02:55:39.700Z,11.10
2022-10-05T02:58:59.416Z,11.00
2022-10-05T03:02:38.492Z,11.00
2022-10-05T03:05:46.072Z,11.00
2022-10-05T03:08:59.931Z,11.00
2022-10-05T03:12:04.233Z,10.90
2022-10-05T03:15:26.948Z,10.90
2022-10-05T03:18:45.558Z,10.80
2022-10-05T03:22:05.644Z,11.10
2022-10-05T03:25:23.092Z,10.80
2022-10-05T03:28:41.463Z,10.80
2022-10-05T03:31:48.763Z,10.80
2022-10-05T03:35:00.994Z,10.90
2022-10-05T03:38:15.569Z,10.90
2022-10-05T03:41:27.308Z,10.90
2022-10-05T03:44:40.262Z,10.90
2022-10-05T03:48:08.231Z,11.00
2022-10-05T03:51:23.879Z,11.00
2022-10-05T03:54:39.767Z,11.00
2022-10-05T03:57:43.448Z,11.00
2022-10-05T04:00:50.259Z,11.00
2022-10-05T04:04:04.065Z,11.00
2022-10-05T04:07:11.409Z,10.90
2022-10-05T04:10:36.465Z,10.90
2022-10-05T04:13:48.964Z,11.10
2022-10-05T04:16:58.963Z,10.90
2022-10-05T04:20:24.779Z,10.90
2022-10-05T04:24:04.024Z,10.90
2022-10-05T04:27:23.056Z,10.80
2022-10-05T04:30:24.941Z,10.80
2022-10-05T04:33:27.605Z,10.90
2022-10-05T04:36:40.593Z,10.70
2022-10-05T04:40:17.563Z,10.80
2022-10-05T04:43:36.836Z,10.70
2022-10-05T04:46:57.155Z,10.70
2022-10-05T04:50:22.175Z,10.70
2022-10-05T04:53:45.550Z,10.80
2022-10-05T04:56:58.411Z,10.60
2022-10-05T05:00:23.154Z,10.70
2022-10-05T05:03:52.744Z,10.70
2022-10-05T05:07:23.565Z,10.70
2022-10-05T05:10:54.198Z,10.60
2022-10-05T05:14:17.488Z,10.60
2022-10-05T05:17:52.034Z,10.60
2022-10-05T05:21:09.256Z,10.70
2022-10-05T05:24:16.838Z,10.80
2022-10-05T05:27:35.261Z,10.70
2022-10-05T05:30:47.211Z,10.60
2022-10-05T05:34:33.112Z,10.70
2022-10-05T05:37:38.690Z,10.70
2022-10-05T05:40:43.087Z,10.60
2022-10-05T05:44:06.036Z,10.60
2022-10-05T05:47:19.610Z,10.70
2022-10-05T05:50:40.129Z,10.70
2022-10-05T05:53:47.551Z,10.80
2022-10-05T05:56:56.229Z,10.80
2022-10-05T06:00:14.651Z,10.80
2022-10-05T06:03:39.731Z,10.80
2022-10-05T06:06:47.092Z,10.90
2022-10-05T06:10:02.785Z,10.90
2022-10-05T06:13:16.140Z,11.00
2022-10-05T06:16:46.419Z,11.10
2022-10-05T06:19:49.477Z,11.20
2022-10-05T06:22:52.590Z,11.30
2022-10-05T06:26:08.289Z,11.30
2022-10-05T06:29:21.902Z,11.50
2022-10-05T06:32:32.114Z,11.70
2022-10-05T06:35:39.935Z,11.90
2022-10-05T06:38:56.412Z,11.90
2022-10-05T06:42:28.675Z,11.80
2022-10-05T06:46:00.202Z,11.70
2022-10-05T06:49:23.421Z,11.80
2022-10-05T06:52:38.901Z,11.90
2022-10-05T06:55:58.692Z,12.10
2022-10-05T06:59:11.734Z,12.30
2022-10-05T07:02:19.252Z,12.60
2022-10-05T07:05:39.704Z,12.80
2022-10-05T07:08:54.120Z,13.00
2022-10-05T07:12:12.574Z,13.20
2022-10-05T07:15:35.825Z,13.40
2022-10-05T07:19:15.336Z,13.60
2022-10-05T07:22:48.671Z,13.90
2022-10-05T07:26:21.485Z,14.00
2022-10-05T07:29:46.188Z,14.20
2022-10-05T07:32:58.367Z,14.10
2022-10-05T07:36:27.123Z,14.20
2022-10-05T07:39:59.196Z,14.50
2022-10-05T07:43:06.168Z,14.00
2022-10-05T07:46:29.336Z,13.90
2022-10-05T07:49:47.594Z,13.90
2022-10-05T07:53:04.891Z,14.10
2022-10-05T07:56:21.888Z,14.20
2022-10-05T07:59:37.679Z,14.20
2022-10-05T08:02:44.445Z,14.30
2022-10-05T08:05:46.939Z,14.50
2022-10-05T08:08:59.698Z,15.10
2022-10-05T08:12:04.289Z,14.80
2022-10-05T08:15:15.306Z,14.80
2022-10-05T08:18:37.855Z,14.80
2022-10-05T08:21:50.925Z,14.90
2022-10-05T08:25:02.029Z,15.00
2022-10-05T08:28:38.928Z,14.90
2022-10-05T08:31:47.352Z,14.90
2022-10-05T08:34:51.275Z,15.10
2022-10-05T08:37:54.309Z,14.90
2022-10-05T08:41:32.244Z,15.70
2022-10-05T08:45:26.769Z,15.50
2022-10-05T08:49:09.855Z,15.80
2022-10-05T08:52:34.321Z,15.70
2022-10-05T08:55:47.914Z,15.50
2022-10-05T08:59:07.606Z,15.60
2022-10-05T09:02:31.500Z,15.60
2022-10-05T09:06:01.626Z,15.60
2022-10-05T09:09:08.048Z,15.60
2022-10-05T09:12:22.172Z,15.40
2022-10-05T09:15:33.578Z,15.10
2022-10-05T09:19:12.709Z,15.20
2022-10-05T09:22:52.247Z,15.20
2022-10-05T09:26:23.125Z,15.20
2022-10-05T09:29:49.815Z,15.30
2022-10-05T09:33:25.860Z,15.40
2022-10-05T09:36:37.038Z,15.20
2022-10-05T09:39:47.769Z,15.40
2022-10-05T09:43:02.506Z,15.40
2022-10-05T09:46:24.807Z,15.30
2022-10-05T09:49:57.177Z,15.60
2022-10-05T09:53:40.575Z,15.70
2022-10-05T09:57:19.976Z,15.90
2022-10-05T10:00:26.328Z,15.90
2022-10-05T10:04:10.076Z,15.80
2022-10-05T10:08:04.681Z,15.80
2022-10-05T10:11:16.237Z,15.70
2022-10-05T10:14:43.111Z,15.80
2022-10-05T10:17:55.591Z,15.70
2022-10-05T10:21:17.189Z,15.60
2022-10-05T10:24:56.371Z,15.60
2022-10-05T10:28:26.194Z,15.60
2022-10-05T10:31:52.317Z,15.50
2022-10-05T10:35:14.082Z,15.40
2022-10-05T10:38:28.638Z,15.40
2022-10-05T10:41:51.037Z,15.40
2022-10-05T10:45:17.350Z,15.50
2022-10-05T10:48:18.929Z,15.70
2022-10-05T10:51:41.699Z,15.70
2022-10-05T10:55:20.971Z,15.70
2022-10-05T10:58:47.293Z,15.70
2022-10-05T11:02:19.848Z,15.60
2022-10-05T11:05:49.120Z,15.70
2022-10-05T11:09:09.596Z,15.70
2022-10-05T11:12:41.062Z,15.70
2022-10-05T11:16:18.736Z,15.60
2022-10-05T11:19:46.248Z,15.60
2022-10-05T11:23:20.241Z,15.70
2022-10-05T11:26:36.812Z,15.90
2022-10-05T11:29:51.369Z,15.90
2022-10-05T11:33:35.152Z,16.00
2022-10-05T11:37:00.992Z,16.00
2022-10-05T11:40:22.986Z,16.10
2022-10-05T11:43:33.501Z,16.10
2022-10-05T11:46:52.596Z,16.00
2022-10-05T11:50:12.534Z,15.90
2022-10-05T11:53:29.128Z,15.90
2022-10-05T11:56:42.036Z,15.90
2022-10-05T12:00:13.763Z,16.00
2022-10-05T12:03:34.391Z,15.90
2022-10-05T12:06:56.659Z,16.00
2022-10-05T12:10:23.263Z,16.00
2022-10-05T12:14:14.095Z,16.10
2022-10-05T12:17:51.056Z,16.10
2022-10-05T12:20:58.333Z,16.20
2022-10-05T12:24:14.095Z,16.20
2022-10-05T12:27:22.460Z,16.10
2022-10-05T12:30:48.867Z,16.10
2022-10-05T12:33:59.105Z,16.20
2022-10-05T12:37:05.394Z,16.10
2022-10-05T12:40:26.339Z,16.10
2022-10-05T12:43:55.321Z,16.00
2022-10-05T12:47:34.272Z,16.00
2022-10-05T12:50:42.089Z,15.90
2022-10-05T12:53:49.136Z,15.90
2022-10-05T12:56:58.061Z,15.80
2022-10-05T13:00:05.847Z,15.80
2022-10-05T13:03:32.492Z,15.90
2022-10-05T13:07:04.431Z,15.90
2022-10-05T13:10:28.105Z,16.00
2022-10-05T13:14:08.147Z,16.00
2022-10-05T13:17:47.808Z,16.00
2022-10-05T13:21:17.431Z,16.00
2022-10-05T13:24:23.982Z,16.00
2022-10-05T13:27:48.873Z,16.10
2022-10-05T13:31:18.621Z,16.10
2022-10-05T13:34:34.622Z,16.20
2022-10-05T13:37:59.744Z,16.30
2022-10-05T13:41:23.584Z,16.30
2022-10-05T13:44:48.965Z,16.30
2022-10-05T13:47:55.417Z,16.40
2022-10-05T13:51:20.188Z,16.30
2022-10-05T13:54:44.669Z,16.40
2022-10-05T13:58:05.824Z,16.40
2022-10-05T14:01:22.437Z,16.40
2022-10-05T14:04:42.335Z,16.50
2022-10-05T14:07:58.449Z,16.40
2022-10-05T14:11:01.152Z,16.50
2022-10-05T14:14:23.429Z,16.40
2022-10-05T14:17:40.745Z,16.50
2022-10-05T14:21:02.105Z,16.60
2022-10-05T14:24:50.559Z,16.50
2022-10-05T14:28:02.342Z,16.60
2022-10-05T14:31:16.125Z,16.60
2022-10-05T14:34:37.335Z,16.60
2022-10-05T14:37:49.040Z,16.60
2022-10-05T14:41:17.916Z,16.60
2022-10-05T14:48:14.405Z,16.60
2022-10-05T14:51:30.413Z,16.70
2022-10-05T14:55:00.825Z,16.70
2022-10-05T14:58:05.229Z,16.80
2022-10-05T15:01:24.048Z,16.80
2022-10-05T15:04:50.599Z,16.80
2022-10-05T15:07:57.150Z,16.90
2022-10-05T15:11:23.772Z,16.90
2022-10-05T15:14:40.313Z,16.90
2022-10-05T15:17:47.481Z,16.80
2022-10-05T15:21:12.062Z,17.00
2022-10-05T15:24:27.016Z,16.90
2022-10-05T15:27:44.722Z,16.90
2022-10-05T15:31:01.274Z,16.80
2022-10-05T15:34:24.424Z,16.90
2022-10-05T15:37:33.206Z,16.80
2022-10-05T15:40:41.464Z,16.90
2022-10-05T15:44:09.548Z,16.70
2022-10-05T15:47:22.445Z,16.80
2022-10-05T15:50:43.141Z,16.80
2022-10-05T15:54:23.894Z,16.80
2022-10-05T15:57:43.801Z,16.70
2022-10-05T16:00:54.700Z,16.80
2022-10-05T16:04:02.220Z,16.70
2022-10-05T16:07:28.569Z,16.70
2022-10-05T16:10:33.953Z,16.70
2022-10-05T16:13:48.325Z,16.60
2022-10-05T16:17:04.549Z,16.60
2022-10-05T16:20:28.676Z,16.60
2022-10-05T16:23:58.415Z,16.50
2022-10-05T16:27:10.442Z,16.50
2022-10-05T16:30:16.601Z,16.50
2022-10-05T16:33:29.061Z,16.60
2022-10-05T16:36:48.628Z,16.40
2022-10-05T16:40:14.551Z,16.40
2022-10-05T16:43:46.694Z,16.40
2022-10-05T16:46:51.482Z,16.40
2022-10-05T16:50:04.578Z,16.30
2022-10-05T16:53:23.051Z,16.20
2022-10-05T16:56:39.639Z,16.20
2022-10-05T17:00:03.766Z,16.20
2022-10-05T17:03:17.445Z,16.10
2022-10-05T17:06:37.758Z,16.10
2022-10-05T17:10:07.265Z,16.00
2022-10-05T17:13:18.078Z,16.00
2022-10-05T17:16:37.389Z,16.00
2022-10-05T17:20:03.345Z,15.90
2022-10-05T17:23:29.090Z,15.90
2022-10-05T17:26:54.695Z,15.90
2022-10-05T17:30:20.738Z,15.80
2022-10-05T17:33:27.495Z,15.70
2022-10-05T17:36:47.402Z,15.80
2022-10-05T17:39:52.237Z,15.80
2022-10-05T17:43:15.829Z,15.70
2022-10-05T17:46:38.192Z,15.70
2022-10-05T17:50:16.644Z,15.60
2022-10-05T17:53:53.141Z,15.80
2022-10-05T17:56:57.525Z,15.70
2022-10-05T18:00:05.220Z,15.70
2022-10-05T18:03:37.698Z,15.80
2022-10-05T18:07:14.344Z,15.70
2022-10-05T18:10:29.593Z,15.70
2022-10-05T18:13:43.757Z,15.70
2022-10-05T18:17:01.837Z,15.70
2022-10-05T18:20:23.716Z,15.70
2022-10-05T18:23:29.359Z,15.80
2022-10-05T18:26:59.370Z,15.60
2022-10-05T18:30:05.482Z,15.70
2022-10-05T18:33:34.867Z,15.70
2022-10-05T18:36:56.116Z,15.80
2022-10-05T18:40:08.518Z,15.70
2022-10-05T18:43:34.406Z,15.70
2022-10-05T18:47:01.600Z,15.70
2022-10-05T18:50:30.704Z,15.70
2022-10-05T18:53:58.704Z,15.70
2022-10-05T18:57:22.249Z,15.70
2022-10-05T19:00:25.191Z,15.70
2022-10-05T19:03:54.947Z,15.70
2022-10-05T19:07:16.037Z,15.80
2022-10-05T19:10:28.244Z,15.80
2022-10-05T19:13:52.394Z,15.90
2022-10-05T19:17:19.332Z,15.70
2022-10-05T19:20:35.526Z,15.80
2022-10-05T19:23:43.034Z,15.70
2022-10-05T19:27:06.691Z,15.80
2022-10-05T19:30:27.340Z,15.80
2022-10-05T19:33:37.754Z,15.80
2022-10-05T19:36:51.138Z,15.70
2022-10-05T19:40:22.217Z,15.80
2022-10-05T19:43:45.603Z,15.80
2022-10-05T19:46:59.353Z,15.70
2022-10-05T19:50:22.352Z,15.70
2022-10-05T19:53:38.498Z,15.60
2022-10-05T19:56:52.672Z,15.60
2022-10-05T20:00:25.971Z,15.60
2022-10-05T20:03:33.430Z,15.60
2022-10-05T20:06:35.156Z,15.60
2022-10-05T20:09:59.939Z,15.60
2022-10-05T20:13:03.875Z,15.60
2022-10-05T20:16:48.507Z,15.50
2022-10-05T20:20:08.673Z,15.60
2022-10-05T20:23:21.084Z,15.50
2022-10-05T20:27:05.501Z,15.50
2022-10-05T20:30:28.722Z,15.60
2022-10-05T20:33:30.372Z,15.60
2022-10-05T20:36:32.242Z,15.50
2022-10-05T20:39:33.876Z,15.60
2022-10-05T20:42:35.691Z,15.50
2022-10-05T20:45:43.256Z,15.70
2022-10-05T20:48:45.709Z,15.50
2022-10-05T20:51:47.368Z,15.70
2022-10-05T20:54:58.824Z,15.70
2022-10-05T20:58:01.044Z,15.50
2022-10-05T21:01:23.255Z,15.70
2022-10-05T21:04:35.955Z,15.70
2022-10-05T21:07:41.677Z,15.60
2022-10-05T21:10:43.248Z,15.60
2022-10-05T21:13:45.353Z,15.60
2022-10-05T21:16:51.210Z,15.60
2022-10-05T21:19:52.812Z,15.50
2022-10-05T21:22:54.421Z,15.30
2022-10-05T21:25:56.043Z,15.60
2022-10-05T21:28:58.391Z,15.50
2022-10-05T21:32:00.336Z,15.40
2022-10-05T21:35:01.958Z,15.40
2022-10-05T21:38:03.564Z,15.50
2022-10-05T21:41:05.385Z,15.40
2022-10-05T21:44:07.025Z,15.40
2022-10-05T21:47:08.649Z,15.30
2022-10-05T21:50:10.344Z,15.10
2022-10-05T21:53:15.617Z,15.30
2022-10-05T21:56:22.809Z,15.30
2022-10-05T21:59:28.576Z,15.40
2022-10-05T22:02:30.191Z,15.30
2022-10-05T22:05:32.213Z,15.40
2022-10-05T22:08:34.801Z,15.40
2022-10-05T22:11:36.662Z,15.40
2022-10-05T22:14:38.275Z,15.40
2022-10-05T22:17:40.512Z,15.40
2022-10-05T22:20:42.301Z,15.50
2022-10-05T22:23:45.932Z,15.50
2022-10-05T22:26:49.148Z,15.70
2022-10-05T22:29:51.363Z,15.50
2022-10-05T22:32:55.341Z,15.60
2022-10-05T22:36:00.493Z,15.60
2022-10-05T22:39:02.332Z,15.50
2022-10-05T22:42:05.700Z,15.70
2022-10-05T22:45:08.439Z,15.60
2022-10-05T22:48:10.083Z,15.60
2022-10-05T22:51:12.189Z,15.60
2022-10-05T22:54:13.901Z,15.50
2022-10-05T22:57:17.750Z,15.60
2022-10-05T23:00:22.236Z,15.60
2022-10-05T23:03:26.529Z,15.60
2022-10-05T23:06:28.356Z,15.70
2022-10-05T23:09:29.975Z,15.70
2022-10-05T23:12:31.732Z,15.60
2022-10-05T23:15:34.214Z,15.70
2022-10-05T23:18:37.851Z,15.70
2022-10-05T23:21:39.676Z,15.90
2022-10-05T23:24:41.296Z,15.60
2022-10-05T23:27:43.122Z,15.80
2022-10-05T23:30:45.090Z,15.70
2022-10-05T23:33:47.054Z,15.80
2022-10-05T23:36:48.647Z,15.80
2022-10-05T23:39:50.284Z,15.70
2022-10-05T23:42:52.021Z,15.80
2022-10-05T23:45:53.699Z,15.80
2022-10-05T23:48:55.329Z,15.90
2022-10-05T23:51:56.945Z,15.80
2022-10-05T23:54:58.680Z,15.80
2022-10-05T23:58:00.268Z,15.80
